Time;durP1;ratioP1;P1;durP2;ratioP2;P2;SDS_P1;SDS_P2;PMS_P1;PMS_P2;Temp;Humidity;BMP_temperature;BMP_pressure;BME280_temperature;BME280_humidity;BME280_pressure;Samples;Min_cycle;Max_cycle;Signal;HPM_P1;HPM_P2
2022/09/15 00:00:53;;;;;;;3.23;1.73;;;;;;;;;;4994590;28;20228;-82
2022/09/15 00:03:22;;;;;;;1.77;1.67;;;;;;;;;;4977400;28;20201;-83
2022/09/15 00:05:50;;;;;;;2.20;1.70;;;;;;;;;;4977778;28;20236;-83
2022/09/15 00:08:19;;;;;;;1.20;1.10;;;;;;;;;;4977267;28;20323;-83
2022/09/15 00:10:48;;;;;;;0.90;0.90;;;;;;;;;;4965579;28;20295;-83
2022/09/15 00:13:17;;;;;;;0.77;0.77;;;;;;;;;;4977179;28;20284;-83
2022/09/15 00:15:46;;;;;;;2.17;1.17;;;;;;;;;;4977336;28;20219;-83
2022/09/15 00:18:14;;;;;;;0.50;0.50;;;;;;;;;;4994376;28;20290;-83
2022/09/15 00:20:43;;;;;;;1.33;0.90;;;;;;;;;;4977108;28;20241;-83
2022/09/15 00:23:13;;;;;;;0.87;0.87;;;;;;;;;;4976961;28;20206;-83
2022/09/15 00:25:43;;;;;;;0.90;0.90;;;;;;;;;;4977044;28;20209;-83
2022/09/15 00:28:11;;;;;;;0.40;0.40;;;;;;;;;;4977221;28;20224;-83
2022/09/15 00:30:44;;;;;;;0.83;0.77;;;;;;;;;;4977002;28;20212;-83
2022/09/15 00:33:13;;;;;;;0.80;0.80;;;;;;;;;;4977234;28;20220;-83
2022/09/15 00:35:46;;;;;;;0.73;0.73;;;;;;;;;;4977074;28;20204;-83
2022/09/15 00:38:15;;;;;;;1.33;0.97;;;;;;;;;;4976885;28;20306;-83
2022/09/15 00:40:44;;;;;;;1.87;1.70;;;;;;;;;;4994064;28;20238;-83
2022/09/15 00:43:12;;;;;;;0.80;0.80;;;;;;;;;;4976818;28;20204;-83
2022/09/15 00:45:41;;;;;;;0.60;0.60;;;;;;;;;;4976925;28;20231;-83
2022/09/15 00:48:12;;;;;;;3.80;0.80;;;;;;;;;;4976737;28;20223;-83
2022/09/15 00:50:42;;;;;;;5.77;1.90;;;;;;;;;;4976330;28;20283;-83
2022/09/15 00:53:11;;;;;;;0.43;0.43;;;;;;;;;;4976646;28;20262;-83
2022/09/15 00:55:41;;;;;;;0.87;0.50;;;;;;;;;;4993266;28;20204;-83
2022/09/15 00:58:11;;;;;;;0.40;0.40;;;;;;;;;;4975079;28;20239;-83
2022/09/15 01:00:42;;;;;;;0.70;0.70;;;;;;;;;;4965900;28;20288;-83
2022/09/15 01:03:13;;;;;;;0.60;0.60;;;;;;;;;;4976569;28;20209;-83
2022/09/15 01:05:43;;;;;;;6.30;2.93;;;;;;;;;;4976880;28;20254;-84
2022/09/15 01:08:14;;;;;;;0.70;0.70;;;;;;;;;;4976501;28;20224;-83
2022/09/15 01:10:43;;;;;;;0.70;0.70;;;;;;;;;;4994188;28;20268;-83
2022/09/15 01:13:12;;;;;;;0.50;0.50;;;;;;;;;;4976246;28;20199;-83
2022/09/15 01:15:45;;;;;;;0.70;0.70;;;;;;;;;;4976575;28;20227;-83
2022/09/15 01:18:19;;;;;;;0.60;0.60;;;;;;;;;;4957792;28;20212;-83
2022/09/15 01:20:54;;;;;;;0.80;0.63;;;;;;;;;;4971508;28;20363;-83
2022/09/15 01:23:41;;;;;;;0.40;0.40;;;;;;;;;;4967974;28;20208;-83
2022/09/15 01:26:26;;;;;;;0.60;0.60;;;;;;;;;;4975654;28;20202;-83
2022/09/15 01:29:05;;;;;;;1.70;0.87;;;;;;;;;;4964456;28;20219;-83
2022/09/15 01:33:02;;;;;;;0.60;0.60;;;;;;;;;;4966027;28;20210;-83
2022/09/15 01:34:28;;;;;;;0.40;0.40;;;;;;;;;;4976330;28;20315;-83
2022/09/15 01:36:58;;;;;;;0.80;0.80;;;;;;;;;;4976218;28;20232;-83
2022/09/15 01:39:29;;;;;;;0.40;0.40;;;;;;;;;;4976554;28;20210;-83
2022/09/15 01:41:59;;;;;;;0.87;0.87;;;;;;;;;;4976118;28;20262;-83
2022/09/15 01:44:29;;;;;;;2.07;1.00;;;;;;;;;;4976623;28;20235;-83
2022/09/15 01:47:01;;;;;;;1.20;0.70;;;;;;;;;;4974049;28;20199;-83
2022/09/15 01:49:35;;;;;;;0.40;0.40;;;;;;;;;;4976038;28;20208;-83
2022/09/15 01:52:03;;;;;;;0.47;0.47;;;;;;;;;;4993060;28;20222;-83
2022/09/15 01:54:34;;;;;;;8.70;0.90;;;;;;;;;;4975932;28;20241;-83
2022/09/15 01:57:03;;;;;;;0.40;0.40;;;;;;;;;;4975690;28;20207;-83
2022/09/15 01:59:31;;;;;;;0.67;0.67;;;;;;;;;;4976045;28;20211;-83
2022/09/15 02:02:04;;;;;;;0.50;0.50;;;;;;;;;;4975916;28;20291;-83
2022/09/15 02:04:37;;;;;;;0.47;0.47;;;;;;;;;;4975982;28;20205;-83
2022/09/15 02:07:10;;;;;;;0.87;0.87;;;;;;;;;;4964643;28;20267;-83
2022/09/15 02:09:40;;;;;;;0.30;0.30;;;;;;;;;;4979746;28;20197;-83
2022/09/15 02:12:11;;;;;;;1.80;1.60;;;;;;;;;;4967363;28;20295;-83
2022/09/15 02:14:46;;;;;;;0.80;0.80;;;;;;;;;;4966659;28;20272;-83
2022/09/15 02:17:18;;;;;;;2.10;0.80;;;;;;;;;;4979355;28;20207;-83
2022/09/15 02:19:48;;;;;;;0.50;0.50;;;;;;;;;;4979728;28;20232;-83
2022/09/15 02:22:22;;;;;;;1.67;1.17;;;;;;;;;;4979521;28;20305;-83
2022/09/15 02:24:53;;;;;;;0.30;0.30;;;;;;;;;;4996345;28;20196;-83
2022/09/15 02:27:23;;;;;;;0.40;0.40;;;;;;;;;;4979699;28;20220;-83
2022/09/15 02:29:53;;;;;;;3.40;1.03;;;;;;;;;;4979561;28;20206;-83
2022/09/15 02:32:24;;;;;;;0.40;0.40;;;;;;;;;;4979158;28;20207;-83
2022/09/15 02:34:54;;;;;;;0.40;0.40;;;;;;;;;;4979107;28;20296;-83
2022/09/15 02:37:25;;;;;;;0.50;0.50;;;;;;;;;;4967344;28;20198;-83
2022/09/15 02:39:56;;;;;;;1.20;1.10;;;;;;;;;;4978727;28;20259;-83
2022/09/15 02:42:25;;;;;;;0.40;0.40;;;;;;;;;;4979235;28;20219;-83
2022/09/15 02:44:54;;;;;;;1.63;0.90;;;;;;;;;;4979065;28;20255;-83
2022/09/15 02:47:24;;;;;;;0.40;0.40;;;;;;;;;;4996355;28;20205;-83
2022/09/15 02:49:52;;;;;;;0.40;0.40;;;;;;;;;;4979114;28;20224;-83
2022/09/15 02:52:21;;;;;;;1.50;0.70;;;;;;;;;;4996435;28;20283;-83
2022/09/15 02:54:49;;;;;;;2.03;1.27;;;;;;;;;;4978818;28;20197;-83
2022/09/15 02:57:18;;;;;;;0.80;0.80;;;;;;;;;;4979356;28;20205;-83
2022/09/15 03:02:34;;;;;;;0.60;0.60;;;;;;;;;;4978963;28;20274;-82
2022/09/15 03:05:02;;;;;;;0.43;0.43;;;;;;;;;;4978888;28;20216;-83
2022/09/15 03:07:31;;;;;;;8.33;0.70;;;;;;;;;;4978437;28;20245;-83
2022/09/15 03:09:59;;;;;;;0.30;0.30;;;;;;;;;;4978924;28;20250;-83
2022/09/15 03:12:27;;;;;;;0.30;0.30;;;;;;;;;;4978652;28;20318;-83
2022/09/15 03:14:56;;;;;;;0.40;0.40;;;;;;;;;;4987110;28;20205;-82
2022/09/15 03:17:25;;;;;;;0.53;0.50;;;;;;;;;;4974887;28;20212;-83
2022/09/15 03:19:54;;;;;;;0.60;0.60;;;;;;;;;;4977683;28;20220;-83
2022/09/15 03:22:23;;;;;;;0.40;0.40;;;;;;;;;;4978483;28;20205;-83
2022/09/15 03:24:53;;;;;;;1.20;0.87;;;;;;;;;;4978789;28;20214;-83
2022/09/15 03:27:21;;;;;;;0.30;0.30;;;;;;;;;;4978303;28;20220;-83
2022/09/15 03:29:50;;;;;;;0.30;0.30;;;;;;;;;;4978694;28;20536;-83
2022/09/15 03:32:18;;;;;;;0.30;0.30;;;;;;;;;;4978632;28;20291;-83
2022/09/15 03:34:46;;;;;;;0.40;0.40;;;;;;;;;;4995356;28;20232;-83
2022/09/15 03:37:16;;;;;;;0.40;0.40;;;;;;;;;;4978405;28;20266;-83
2022/09/15 03:39:44;;;;;;;0.30;0.30;;;;;;;;;;4965977;28;20233;-83
2022/09/15 03:42:13;;;;;;;0.37;0.37;;;;;;;;;;4978324;28;20222;-83
2022/09/15 03:44:41;;;;;;;0.47;0.47;;;;;;;;;;4978314;28;20250;-83
2022/09/15 03:47:10;;;;;;;0.30;0.30;;;;;;;;;;4995624;28;20201;-83
2022/09/15 03:49:38;;;;;;;13.23;0.80;;;;;;;;;;4994973;28;20235;-83
2022/09/15 03:52:06;;;;;;;0.30;0.30;;;;;;;;;;4978299;28;20230;-83
2022/09/15 03:54:36;;;;;;;0.30;0.30;;;;;;;;;;4978014;28;20211;-83
2022/09/15 03:57:05;;;;;;;0.63;0.63;;;;;;;;;;4995077;28;20259;-83
2022/09/15 03:59:33;;;;;;;0.30;0.30;;;;;;;;;;4994791;28;20311;-83
2022/09/15 04:02:01;;;;;;;0.40;0.40;;;;;;;;;;4977887;28;20224;-83
2022/09/15 04:04:30;;;;;;;0.43;0.43;;;;;;;;;;4964976;28;20205;-83
2022/09/15 04:06:59;;;;;;;6.70;1.73;;;;;;;;;;4977875;28;20206;-83
2022/09/15 04:09:27;;;;;;;1.03;1.03;;;;;;;;;;4978026;28;20225;-83
2022/09/15 04:11:58;;;;;;;0.30;0.30;;;;;;;;;;4962217;28;20235;-83
2022/09/15 04:14:27;;;;;;;1.87;1.23;;;;;;;;;;4972945;28;20205;-83
2022/09/15 04:16:55;;;;;;;0.80;0.80;;;;;;;;;;4970494;28;20204;-83
2022/09/15 04:19:23;;;;;;;3.20;1.00;;;;;;;;;;4977305;28;20212;-82
2022/09/15 04:21:52;;;;;;;5.83;1.23;;;;;;;;;;4994727;28;20209;-82
2022/09/15 04:24:20;;;;;;;0.57;0.57;;;;;;;;;;4977200;28;20228;-83
2022/09/15 04:26:48;;;;;;;0.77;0.77;;;;;;;;;;4965010;28;20432;-83
2022/09/15 04:29:18;;;;;;;0.63;0.63;;;;;;;;;;4977495;28;20200;-83
2022/09/15 04:31:47;;;;;;;0.40;0.40;;;;;;;;;;4976435;28;20206;-83
2022/09/15 04:34:16;;;;;;;0.40;0.40;;;;;;;;;;4977171;28;20211;-83
2022/09/15 04:36:45;;;;;;;3.53;1.07;;;;;;;;;;4977653;28;20238;-82
2022/09/15 04:39:13;;;;;;;0.50;0.50;;;;;;;;;;4994735;28;20281;-83
2022/09/15 04:41:42;;;;;;;0.43;0.43;;;;;;;;;;4994393;28;20246;-83
2022/09/15 04:44:10;;;;;;;0.37;0.37;;;;;;;;;;4977016;28;20255;-82
2022/09/15 04:46:40;;;;;;;0.40;0.40;;;;;;;;;;4976841;28;20294;-83
2022/09/15 04:49:08;;;;;;;0.40;0.40;;;;;;;;;;4976746;28;20203;-83
2022/09/15 04:51:37;;;;;;;0.40;0.40;;;;;;;;;;4976603;28;20228;-83
2022/09/15 04:54:05;;;;;;;0.40;0.40;;;;;;;;;;4977068;28;20292;-83
2022/09/15 04:56:34;;;;;;;0.40;0.40;;;;;;;;;;4976991;28;20228;-83
2022/09/15 04:59:03;;;;;;;0.40;0.40;;;;;;;;;;4977079;28;20212;-83
2022/09/15 05:01:32;;;;;;;0.40;0.40;;;;;;;;;;4976612;28;20219;-83
2022/09/15 05:04:03;;;;;;;0.40;0.40;;;;;;;;;;4976918;28;20215;-83
2022/09/15 05:06:33;;;;;;;0.40;0.40;;;;;;;;;;4976770;28;20204;-83
2022/09/15 05:09:01;;;;;;;0.60;0.60;;;;;;;;;;4993990;28;20224;-83
2022/09/15 05:11:37;;;;;;;3.40;1.17;;;;;;;;;;4976985;28;20214;-83
2022/09/15 05:14:05;;;;;;;1.70;0.93;;;;;;;;;;4976476;28;20217;-83
2022/09/15 05:16:33;;;;;;;0.40;0.40;;;;;;;;;;4976674;28;20228;-83
2022/09/15 05:19:04;;;;;;;0.73;0.73;;;;;;;;;;4976534;28;20204;-83
2022/09/15 05:21:33;;;;;;;0.83;0.60;;;;;;;;;;4976971;28;20212;-83
2022/09/15 05:24:01;;;;;;;1.03;1.03;;;;;;;;;;4976823;28;20212;-84
2022/09/15 05:26:30;;;;;;;1.43;0.93;;;;;;;;;;4976608;28;20200;-83
2022/09/15 05:28:59;;;;;;;3.73;1.93;;;;;;;;;;4975815;28;20198;-83
2022/09/15 05:31:29;;;;;;;1.63;1.10;;;;;;;;;;4993006;28;20243;-84
2022/09/15 05:33:58;;;;;;;2.67;1.47;;;;;;;;;;4976539;28;20256;-84
2022/09/15 05:36:28;;;;;;;5.07;1.10;;;;;;;;;;4993411;28;20254;-84
2022/09/15 05:38:57;;;;;;;2.50;1.40;;;;;;;;;;4964888;28;20203;-82
2022/09/15 05:41:26;;;;;;;2.30;1.90;;;;;;;;;;4976809;28;20259;-84
2022/09/15 05:43:56;;;;;;;6.90;1.43;;;;;;;;;;4980188;28;20207;-83
2022/09/15 05:46:26;;;;;;;0.70;0.70;;;;;;;;;;4979730;28;20251;-83
2022/09/15 05:48:55;;;;;;;1.37;1.20;;;;;;;;;;4997622;28;20291;-84
2022/09/15 05:51:24;;;;;;;2.23;0.90;;;;;;;;;;4966939;28;20194;-83
2022/09/15 05:53:54;;;;;;;0.67;0.67;;;;;;;;;;4997752;28;20238;-84
2022/09/15 05:56:24;;;;;;;2.37;1.23;;;;;;;;;;4976584;28;20203;-84
2022/09/15 05:58:53;;;;;;;0.80;0.80;;;;;;;;;;4971261;28;20203;-84
2022/09/15 06:01:22;;;;;;;1.93;1.47;;;;;;;;;;4967472;28;20270;-84
2022/09/15 06:03:51;;;;;;;3.30;1.33;;;;;;;;;;4980202;28;20208;-84
2022/09/15 06:06:23;;;;;;;2.00;1.53;;;;;;;;;;4979786;28;20198;-84
2022/09/15 06:08:54;;;;;;;3.70;1.00;;;;;;;;;;4996917;28;20312;-84
2022/09/15 06:11:28;;;;;;;1.03;0.70;;;;;;;;;;4967820;28;20263;-84
2022/09/15 06:13:59;;;;;;;2.30;1.27;;;;;;;;;;4979830;28;20294;-84
2022/09/15 06:16:27;;;;;;;0.90;0.90;;;;;;;;;;4980010;28;20203;-84
2022/09/15 06:18:57;;;;;;;6.33;0.73;;;;;;;;;;4977059;28;20206;-84
2022/09/15 06:21:26;;;;;;;2.20;1.70;;;;;;;;;;4969902;28;20212;-84
2022/09/15 06:23:55;;;;;;;0.87;0.83;;;;;;;;;;4979815;28;20230;-84
2022/09/15 06:26:25;;;;;;;1.80;0.50;;;;;;;;;;4979648;28;20354;-84
2022/09/15 06:28:55;;;;;;;0.77;0.77;;;;;;;;;;4979995;28;20192;-85
2022/09/15 06:31:24;;;;;;;0.97;0.80;;;;;;;;;;4979885;28;20211;-84
2022/09/15 06:33:54;;;;;;;0.97;0.90;;;;;;;;;;4979683;28;20215;-84
2022/09/15 06:36:24;;;;;;;0.97;0.97;;;;;;;;;;4979624;28;20271;-84
2022/09/15 06:38:53;;;;;;;2.97;1.60;;;;;;;;;;4980085;28;20207;-84
2022/09/15 06:41:22;;;;;;;0.43;0.43;;;;;;;;;;4979306;28;20219;-85
2022/09/15 06:44:01;;;;;;;1.10;1.10;;;;;;;;;;4974358;28;20196;-84
2022/09/15 06:46:29;;;;;;;0.90;0.90;;;;;;;;;;4990436;28;20216;-83
2022/09/15 06:49:01;;;;;;;1.07;0.50;;;;;;;;;;4981579;28;20197;-84
2022/09/15 06:51:35;;;;;;;3.20;0.90;;;;;;;;;;4968189;28;20219;-82
2022/09/15 06:54:18;;;;;;;0.83;0.83;;;;;;;;;;4972472;28;20266;-84
2022/09/15 06:56:51;;;;;;;0.40;0.40;;;;;;;;;;4968334;28;20409;-84
2022/09/15 06:59:32;;;;;;;1.43;1.33;;;;;;;;;;4973305;28;20208;-85
2022/09/15 07:02:36;;;;;;;1.10;1.10;;;;;;;;;;4962581;28;20311;-85
2022/09/15 07:05:10;;;;;;;2.00;1.90;;;;;;;;;;4968462;28;20213;-85
2022/09/15 07:11:43;;;;;;;1.33;1.23;;;;;;;;;;4966350;28;20213;-84
2022/09/15 07:14:44;;;;;;;0.50;0.50;;;;;;;;;;4967125;28;20208;-84
2022/09/15 07:17:25;;;;;;;1.17;1.13;;;;;;;;;;4961407;28;20201;-83
2022/09/15 07:20:10;;;;;;;3.20;0.90;;;;;;;;;;4963638;28;20207;-83
2022/09/15 07:22:56;;;;;;;0.73;0.73;;;;;;;;;;4967244;28;20205;-83
2022/09/15 07:25:43;;;;;;;3.53;1.47;;;;;;;;;;4962527;28;20202;-84
2022/09/15 07:39:04;;;;;;;1.30;0.97;;;;;;;;;;4834193;29;20217;-84
2022/09/15 07:45:46;;;;;;;1.30;0.70;;;;;;;;;;4838321;29;20492;-83
2022/09/15 07:48:44;;;;;;;1.90;0.93;;;;;;;;;;4841732;29;20221;-83
2022/09/15 07:51:36;;;;;;;2.67;1.27;;;;;;;;;;4820195;29;20202;-83
2022/09/15 07:55:10;;;;;;;1.00;0.90;;;;;;;;;;4807373;29;20260;-84
2022/09/15 08:01:34;;;;;;;5.00;1.87;;;;;;;;;;4781890;29;20234;-84
2022/09/15 08:04:41;;;;;;;8.53;1.27;;;;;;;;;;4795292;29;20240;-83
2022/09/15 08:07:23;;;;;;;0.87;0.87;;;;;;;;;;4807417;29;20233;-83
2022/09/15 08:10:20;;;;;;;1.43;0.73;;;;;;;;;;4803891;29;20215;-83
2022/09/15 08:13:19;;;;;;;2.10;0.90;;;;;;;;;;4829998;29;20260;-83
2022/09/15 08:16:14;;;;;;;4.50;1.27;;;;;;;;;;4901095;28;20210;-82
2022/09/15 08:19:36;;;;;;;0.90;0.80;;;;;;;;;;4965358;28;20208;-82
2022/09/15 08:22:40;;;;;;;0.70;0.70;;;;;;;;;;4963374;28;20217;-83
2022/09/15 08:26:13;;;;;;;5.17;1.67;;;;;;;;;;4968254;28;20209;-83
2022/09/15 08:29:29;;;;;;;0.50;0.50;;;;;;;;;;4971593;28;20274;-83
2022/09/15 08:32:41;;;;;;;5.83;1.00;;;;;;;;;;4973162;28;20208;-82
2022/09/15 08:35:33;;;;;;;1.13;0.83;;;;;;;;;;4964033;28;20298;-83
2022/09/15 08:38:33;;;;;;;1.20;0.90;;;;;;;;;;4967882;28;20227;-84
2022/09/15 08:41:44;;;;;;;2.03;1.20;;;;;;;;;;4965526;28;20229;-85
2022/09/15 08:47:54;;;;;;;6.27;1.57;;;;;;;;;;4947783;28;20211;-82
2022/09/15 08:51:40;;;;;;;0.60;0.60;;;;;;;;;;4958878;28;20790;-84
2022/09/15 08:55:07;;;;;;;0.53;0.53;;;;;;;;;;4979607;28;20216;-83
2022/09/15 08:58:04;;;;;;;0.40;0.40;;;;;;;;;;4962612;28;20228;-83
2022/09/15 09:01:46;;;;;;;4.17;1.27;;;;;;;;;;4865031;29;20245;-83
2022/09/15 09:04:41;;;;;;;0.43;0.43;;;;;;;;;;4865900;29;20204;-83
2022/09/15 09:07:37;;;;;;;3.00;0.93;;;;;;;;;;4866955;29;20260;-82
2022/09/15 09:14:06;;;;;;;0.97;0.70;;;;;;;;;;4850940;29;20295;-83
2022/09/15 09:17:04;;;;;;;1.07;0.60;;;;;;;;;;4861387;29;20223;-83
2022/09/15 09:29:52;;;;;;;;;;;;;;;;;;;;;
2022/09/15 09:33:19;;;;;;;2.27;0.87;;;;;;;;;;4926978;29;20216;-83
2022/09/15 09:36:29;;;;;;;1.07;0.90;;;;;;;;;;4952118;28;20201;-82
2022/09/15 09:43:44;;;;;;;0.63;0.63;;;;;;;;;;4850987;29;20239;-83
2022/09/15 09:49:43;;;;;;;3.33;1.20;;;;;;;;;;4870485;29;20200;-83
2022/09/15 09:52:38;;;;;;;3.63;1.60;;;;;;;;;;4882937;29;20380;-83
2022/09/15 09:55:30;;;;;;;0.80;0.80;;;;;;;;;;4959036;28;20206;-83
2022/09/15 10:01:19;;;;;;;2.53;0.90;;;;;;;;;;4960189;28;20311;-82
2022/09/15 10:04:32;;;;;;;0.63;0.63;;;;;;;;;;4965282;28;20226;-82
2022/09/15 10:10:34;;;;;;;0.67;0.67;;;;;;;;;;4961962;28;20208;-85
2022/09/15 10:13:32;;;;;;;0.63;0.63;;;;;;;;;;4969401;28;20207;-83
2022/09/15 10:16:12;;;;;;;6.87;1.10;;;;;;;;;;4963372;28;20205;-85
2022/09/15 10:19:04;;;;;;;1.07;0.53;;;;;;;;;;4965948;28;20227;-85
2022/09/15 10:22:00;;;;;;;1.40;0.53;;;;;;;;;;4966425;28;20222;-87
2022/09/15 10:24:48;;;;;;;0.90;0.70;;;;;;;;;;4963929;28;20317;-84
2022/09/15 10:27:32;;;;;;;4.20;0.87;;;;;;;;;;4969941;28;20466;-85
2022/09/15 10:30:19;;;;;;;1.60;0.70;;;;;;;;;;4970672;28;20209;-84
2022/09/15 10:33:06;;;;;;;2.03;0.73;;;;;;;;;;4971393;28;20204;-85
2022/09/15 10:42:47;;;;;;;0.53;0.53;;;;;;;;;;4959445;28;20225;-85
2022/09/15 10:46:03;;;;;;;0.80;0.80;;;;;;;;;;4972596;28;20207;-83
2022/09/15 10:52:34;;;;;;;0.43;0.43;;;;;;;;;;4945736;28;20228;-84
2022/09/15 10:55:31;;;;;;;1.47;0.60;;;;;;;;;;4974685;28;20279;-84
2022/09/15 10:58:44;;;;;;;0.70;0.70;;;;;;;;;;4968612;28;20233;-84
2022/09/15 11:12:32;;;;;;;7.50;0.93;;;;;;;;;;4858220;29;20202;-84
2022/09/15 11:16:03;;;;;;;0.90;0.90;;;;;;;;;;4874062;29;20211;-84
2022/09/15 11:19:26;;;;;;;1.73;1.03;;;;;;;;;;4856676;29;20213;-84
2022/09/15 11:22:50;;;;;;;7.50;0.90;;;;;;;;;;4881037;29;20224;-84
2022/09/15 11:25:44;;;;;;;3.23;1.40;;;;;;;;;;4902020;28;20214;-85
2022/09/15 11:28:34;;;;;;;1.50;0.50;;;;;;;;;;4983781;28;20260;-85
2022/09/15 11:31:15;;;;;;;3.60;0.70;;;;;;;;;;4967629;28;20311;-85
2022/09/15 11:33:53;;;;;;;2.27;1.10;;;;;;;;;;4972967;28;20301;-86
2022/09/15 11:37:04;;;;;;;0.63;0.63;;;;;;;;;;4979498;28;20200;-84
2022/09/15 11:40:17;;;;;;;1.73;0.53;;;;;;;;;;4976959;28;20330;-84
2022/09/15 11:43:41;;;;;;;2.63;1.30;;;;;;;;;;4961439;28;20232;-84
2022/09/15 11:46:38;;;;;;;1.17;0.83;;;;;;;;;;4966584;28;20211;-84
2022/09/15 11:49:33;;;;;;;3.30;1.23;;;;;;;;;;4978318;28;20255;-83
2022/09/15 11:52:38;;;;;;;1.23;1.03;;;;;;;;;;4973995;28;20268;-85
2022/09/15 12:03:00;;;;;;;0.50;0.50;;;;;;;;;;4947832;28;20225;-85
2022/09/15 12:06:03;;;;;;;2.97;0.73;;;;;;;;;;4949211;28;20220;-85
2022/09/15 12:16:09;;;;;;;8.10;1.00;;;;;;;;;;4914398;28;20207;-85
2022/09/15 12:19:04;;;;;;;0.97;0.80;;;;;;;;;;4969459;28;20365;-85
2022/09/15 12:21:59;;;;;;;4.03;0.90;;;;;;;;;;4969182;28;20275;-85
2022/09/15 12:25:16;;;;;;;1.17;1.00;;;;;;;;;;4965622;28;20209;-85
2022/09/15 12:28:22;;;;;;;1.03;0.93;;;;;;;;;;4893233;29;20210;-86
2022/09/15 12:31:38;;;;;;;1.90;1.17;;;;;;;;;;4966118;28;20212;-86
2022/09/15 12:37:43;;;;;;;1.00;0.67;;;;;;;;;;4890958;29;20220;-83
2022/09/15 12:43:55;;;;;;;1.50;0.90;;;;;;;;;;4967086;28;20246;-84
2022/09/15 12:46:50;;;;;;;2.17;0.93;;;;;;;;;;4983825;28;20283;-83
2022/09/15 12:49:32;;;;;;;2.57;0.93;;;;;;;;;;4982582;28;20291;-84
2022/09/15 12:52:32;;;;;;;2.17;0.67;;;;;;;;;;4963308;28;20201;-83
2022/09/15 12:55:39;;;;;;;3.47;2.10;;;;;;;;;;4970459;28;20323;-83
2022/09/15 12:58:17;;;;;;;5.63;0.97;;;;;;;;;;4965804;28;20229;-84
2022/09/15 13:01:19;;;;;;;2.70;1.10;;;;;;;;;;4970623;28;20246;-83
2022/09/15 13:04:26;;;;;;;0.50;0.50;;;;;;;;;;4979807;28;20220;-83
2022/09/15 13:07:17;;;;;;;1.50;0.93;;;;;;;;;;4951503;28;20209;-82
2022/09/15 13:10:15;;;;;;;6.60;0.87;;;;;;;;;;4973637;28;20239;-82
2022/09/15 13:13:01;;;;;;;1.50;1.13;;;;;;;;;;4970172;28;20737;-83
2022/09/15 13:16:03;;;;;;;0.40;0.40;;;;;;;;;;4982910;28;20212;-83
2022/09/15 13:22:30;;;;;;;2.30;0.90;;;;;;;;;;4971321;28;20196;-84
2022/09/15 13:25:25;;;;;;;1.70;1.30;;;;;;;;;;4972555;28;20208;-83
2022/09/15 13:28:02;;;;;;;1.33;0.80;;;;;;;;;;4973651;28;20241;-83
2022/09/15 13:30:45;;;;;;;0.93;0.83;;;;;;;;;;4986630;28;20215;-84
2022/09/15 13:33:32;;;;;;;1.50;0.90;;;;;;;;;;4973005;28;20207;-84
2022/09/15 13:36:50;;;;;;;3.73;1.17;;;;;;;;;;4966436;28;20208;-84
2022/09/15 13:40:19;;;;;;;0.77;0.77;;;;;;;;;;4954453;28;20206;-83
2022/09/15 13:43:25;;;;;;;1.50;0.90;;;;;;;;;;4988074;28;20216;-84
2022/09/15 13:46:27;;;;;;;1.60;0.90;;;;;;;;;;4942861;28;20212;-85
2022/09/15 13:49:12;;;;;;;0.93;0.80;;;;;;;;;;4972617;28;20199;-84
2022/09/15 13:52:14;;;;;;;2.47;0.80;;;;;;;;;;4970921;28;20229;-84
2022/09/15 13:55:18;;;;;;;;;;;;;;;;;;;;;
2022/09/15 13:58:16;;;;;;;2.97;1.40;;;;;;;;;;4970451;28;20239;-84
2022/09/15 14:01:24;;;;;;;1.53;0.87;;;;;;;;;;4986768;28;20231;-84
2022/09/15 14:03:59;;;;;;;3.57;1.20;;;;;;;;;;4971525;28;20217;-83
2022/09/15 14:06:37;;;;;;;3.97;2.47;;;;;;;;;;4970042;28;20211;-83
2022/09/15 14:09:14;;;;;;;2.10;0.93;;;;;;;;;;4974263;28;20209;-83
2022/09/15 14:11:50;;;;;;;1.10;0.80;;;;;;;;;;4976046;28;20192;-84
2022/09/15 14:14:36;;;;;;;6.00;1.63;;;;;;;;;;4990762;28;20264;-84
2022/09/15 14:17:21;;;;;;;1.13;0.90;;;;;;;;;;4973794;28;20216;-83
2022/09/15 14:20:23;;;;;;;0.70;0.70;;;;;;;;;;4978379;28;20223;-83
2022/09/15 14:22:56;;;;;;;1.20;1.10;;;;;;;;;;4977350;28;20207;-84
2022/09/15 14:25:34;;;;;;;6.03;1.13;;;;;;;;;;4980410;28;20208;-84
2022/09/15 14:28:07;;;;;;;1.30;1.20;;;;;;;;;;4983581;28;20286;-84
2022/09/15 14:30:47;;;;;;;1.43;0.90;;;;;;;;;;4989139;28;20192;-84
2022/09/15 14:33:27;;;;;;;3.33;1.67;;;;;;;;;;4983042;28;20212;-83
2022/09/15 14:36:14;;;;;;;2.00;1.03;;;;;;;;;;4978877;28;20199;-84
2022/09/15 14:39:11;;;;;;;1.53;1.07;;;;;;;;;;4983966;28;20247;-82
2022/09/15 14:41:50;;;;;;;1.30;1.03;;;;;;;;;;4984233;28;20224;-83
2022/09/15 14:48:10;;;;;;;2.17;1.30;;;;;;;;;;4988039;28;20281;-88
2022/09/15 14:51:36;;;;;;;9.30;3.13;;;;;;;;;;4962476;28;20206;-87
2022/09/15 14:54:43;;;;;;;1.33;0.73;;;;;;;;;;4950915;28;20199;-87
2022/09/15 14:57:26;;;;;;;1.13;1.13;;;;;;;;;;4979204;28;20217;-86
2022/09/15 15:04:46;;;;;;;;;;;;;;;;;;;;;
2022/09/15 15:07:54;;;;;;;2.03;1.27;;;;;;;;;;4959777;28;20246;-85
2022/09/15 15:11:10;;;;;;;1.10;0.90;;;;;;;;;;4969473;28;20258;-85
2022/09/15 15:20:56;;;;;;;2.10;1.03;;;;;;;;;;4917259;29;20205;-85
2022/09/15 15:23:56;;;;;;;0.60;0.60;;;;;;;;;;4905162;29;20251;-85
2022/09/15 15:30:28;;;;;;;1.10;1.00;;;;;;;;;;4919267;29;20220;-86
2022/09/15 15:33:00;;;;;;;0.50;0.50;;;;;;;;;;4917003;29;20245;-87
2022/09/15 15:35:32;;;;;;;2.10;0.90;;;;;;;;;;4912139;29;20228;-87
2022/09/15 15:38:16;;;;;;;2.67;0.97;;;;;;;;;;4929316;28;20219;-87
2022/09/15 15:40:46;;;;;;;0.50;0.50;;;;;;;;;;4923932;29;20212;-87
2022/09/15 15:43:21;;;;;;;0.50;0.50;;;;;;;;;;4919546;29;20204;-87
2022/09/15 15:45:56;;;;;;;2.33;0.70;;;;;;;;;;4920167;29;20232;-88
2022/09/15 15:48:26;;;;;;;1.60;0.80;;;;;;;;;;4938347;28;20203;-88
2022/09/15 15:50:55;;;;;;;2.07;0.70;;;;;;;;;;4962169;28;20203;-88
2022/09/15 15:53:25;;;;;;;0.50;0.50;;;;;;;;;;4979024;28;20202;-87
2022/09/15 15:55:54;;;;;;;2.23;0.70;;;;;;;;;;4978737;28;20203;-87
2022/09/15 15:58:23;;;;;;;0.77;0.77;;;;;;;;;;4965475;28;20219;-88
2022/09/15 16:00:52;;;;;;;3.57;1.00;;;;;;;;;;4978518;28;20242;-88
2022/09/15 16:03:21;;;;;;;2.87;0.70;;;;;;;;;;4977759;28;20198;-87
2022/09/15 16:05:52;;;;;;;1.43;1.30;;;;;;;;;;4977505;28;20273;-87
2022/09/15 16:08:23;;;;;;;5.17;0.93;;;;;;;;;;4978477;28;20291;-87
2022/09/15 16:10:54;;;;;;;3.67;0.80;;;;;;;;;;4978282;28;20238;-87
2022/09/15 16:13:23;;;;;;;2.57;2.00;;;;;;;;;;4995727;28;20232;-87
2022/09/15 16:15:52;;;;;;;0.80;0.80;;;;;;;;;;4978350;28;20581;-86
2022/09/15 16:18:21;;;;;;;0.93;0.77;;;;;;;;;;4978028;28;20297;-86
2022/09/15 16:20:49;;;;;;;1.60;0.70;;;;;;;;;;4978351;28;20302;-86
2022/09/15 16:23:19;;;;;;;0.70;0.70;;;;;;;;;;4977777;28;20211;-86
2022/09/15 16:25:49;;;;;;;1.60;0.93;;;;;;;;;;4977600;28;20231;-86
2022/09/15 16:28:18;;;;;;;0.40;0.40;;;;;;;;;;4977769;28;20302;-86
2022/09/15 16:30:47;;;;;;;2.73;0.60;;;;;;;;;;4995335;28;20212;-85
2022/09/15 16:33:16;;;;;;;2.57;0.90;;;;;;;;;;4994673;28;20226;-85
2022/09/15 16:35:48;;;;;;;1.30;1.23;;;;;;;;;;4977763;28;20255;-85
2022/09/15 16:38:18;;;;;;;3.03;1.30;;;;;;;;;;4977329;28;20199;-85
2022/09/15 16:40:46;;;;;;;1.40;0.80;;;;;;;;;;4977507;28;20205;-85
2022/09/15 16:43:16;;;;;;;1.00;0.73;;;;;;;;;;4977535;28;20208;-85
2022/09/15 16:45:46;;;;;;;0.40;0.40;;;;;;;;;;4977787;28;20246;-85
2022/09/15 16:48:14;;;;;;;0.40;0.40;;;;;;;;;;4978023;28;20274;-85
2022/09/15 16:50:42;;;;;;;3.33;1.93;;;;;;;;;;4977420;28;20202;-85
2022/09/15 16:53:31;;;;;;;4.73;1.60;;;;;;;;;;4977634;28;20303;-85
2022/09/15 16:55:59;;;;;;;1.10;1.10;;;;;;;;;;4977193;28;20211;-85
2022/09/15 16:58:28;;;;;;;0.50;0.50;;;;;;;;;;4977709;28;20203;-85
2022/09/15 17:00:57;;;;;;;6.60;1.60;;;;;;;;;;4977100;28;20233;-85
2022/09/15 17:03:26;;;;;;;0.73;0.73;;;;;;;;;;4977504;28;20203;-85
2022/09/15 17:05:56;;;;;;;0.60;0.60;;;;;;;;;;4977194;28;20277;-85
2022/09/15 17:08:26;;;;;;;4.20;0.90;;;;;;;;;;4977121;28;20199;-85
2022/09/15 17:10:56;;;;;;;1.17;0.93;;;;;;;;;;4977224;28;20303;-84
2022/09/15 17:13:25;;;;;;;2.53;0.80;;;;;;;;;;4977415;28;20234;-85
2022/09/15 17:15:59;;;;;;;3.17;1.60;;;;;;;;;;4977064;28;20205;-85
2022/09/15 17:18:28;;;;;;;0.50;0.50;;;;;;;;;;4982839;28;20220;-85
2022/09/15 17:20:56;;;;;;;1.60;1.17;;;;;;;;;;4975852;28;20190;-85
2022/09/15 17:23:27;;;;;;;1.43;1.10;;;;;;;;;;4977088;28;20211;-85
2022/09/15 17:25:57;;;;;;;5.10;1.70;;;;;;;;;;4994465;28;20253;-89
2022/09/15 17:28:27;;;;;;;0.53;0.53;;;;;;;;;;4977028;28;20211;-86
2022/09/15 17:30:57;;;;;;;0.40;0.40;;;;;;;;;;4993978;28;20239;-85
2022/09/15 17:33:27;;;;;;;0.50;0.50;;;;;;;;;;4994000;28;20210;-86
2022/09/15 17:35:56;;;;;;;0.50;0.50;;;;;;;;;;4993850;28;20194;-86
2022/09/15 17:38:24;;;;;;;0.50;0.50;;;;;;;;;;4965984;28;20268;-86
2022/09/15 17:40:54;;;;;;;0.50;0.50;;;;;;;;;;4981098;28;20209;-86
2022/09/15 17:43:23;;;;;;;0.50;0.50;;;;;;;;;;4968744;28;20201;-85
2022/09/15 17:45:51;;;;;;;0.50;0.50;;;;;;;;;;4980430;28;20337;-85
2022/09/15 17:48:21;;;;;;;0.50;0.50;;;;;;;;;;4980099;28;20245;-85
2022/09/15 17:50:51;;;;;;;0.50;0.50;;;;;;;;;;4997679;28;20222;-85
2022/09/15 17:53:21;;;;;;;0.50;0.50;;;;;;;;;;4980136;28;20197;-84
2022/09/15 17:55:50;;;;;;;0.40;0.40;;;;;;;;;;4997883;28;20280;-85
2022/09/15 17:58:18;;;;;;;0.50;0.50;;;;;;;;;;4980110;28;20202;-85
2022/09/15 18:00:47;;;;;;;0.40;0.40;;;;;;;;;;4980415;28;20304;-86
2022/09/15 18:03:19;;;;;;;0.50;0.50;;;;;;;;;;4983698;28;20219;-85